sensor_id;sensor_type;location;lat;lon;timestamp;temperature;humidity
27128;DHT22;14660;49.008;8.390;2022-09-30T00:01:53;10.80;99.90
27128;DHT22;14660;49.008;8.390;2022-09-30T00:04:22;10.80;99.90
27128;DHT22;14660;49.008;8.390;2022-09-30T00:06:50;10.90;99.90
27128;DHT22;14660;49.008;8.390;2022-09-30T00:09:18;10.80;99.90
27128;DHT22;14660;49.008;8.390;2022-09-30T00:11:45;10.70;99.90
27128;DHT22;14660;49.008;8.390;2022-09-30T00:14:19;10.80;99.90
27128;DHT22;14660;49.008;8.390;2022-09-30T00:16:46;11.00;99.90
27128;DHT22;14660;49.008;8.390;2022-09-30T00:19:13;11.10;99.90
27128;DHT22;14660;49.008;8.390;2022-09-30T00:21:41;11.00;99.90
27128;DHT22;14660;49.008;8.390;2022-09-30T00:24:08;10.90;99.90
27128;DHT22;14660;49.008;8.390;2022-09-30T00:26:36;10.90;99.90
27128;DHT22;14660;49.008;8.390;2022-09-30T00:29:03;10.90;99.90
27128;DHT22;14660;49.008;8.390;2022-09-30T00:31:32;10.90;99.90
27128;DHT22;14660;49.008;8.390;2022-09-30T00:33:59;10.90;99.90
27128;DHT22;14660;49.008;8.390;2022-09-30T00:36:53;11.00;99.90
27128;DHT22;14660;49.008;8.390;2022-09-30T00:39:25;11.00;99.90
27128;DHT22;14660;49.008;8.390;2022-09-30T00:41:58;11.00;99.90
27128;DHT22;14660;49.008;8.390;2022-09-30T00:53:43;10.70;99.90
27128;DHT22;14660;49.008;8.390;2022-09-30T00:56:41;10.80;99.90
27128;DHT22;14660;49.008;8.390;2022-09-30T00:59:31;10.50;99.90
27128;DHT22;14660;49.008;8.390;2022-09-30T01:02:00;10.50;99.90
27128;DHT22;14660;49.008;8.390;2022-09-30T01:04:30;10.60;99.90
27128;DHT22;14660;49.008;8.390;2022-09-30T01:07:04;10.60;99.90
27128;DHT22;14660;49.008;8.390;2022-09-30T01:09:38;10.60;99.90
27128;DHT22;14660;49.008;8.390;2022-09-30T01:12:13;10.80;99.90
27128;DHT22;14660;49.008;8.390;2022-09-30T01:14:42;10.80;99.90
27128;DHT22;14660;49.008;8.390;2022-09-30T01:45:13;10.80;99.90
27128;DHT22;14660;49.008;8.390;2022-09-30T01:51:10;11.10;99.90
27128;DHT22;14660;49.008;8.390;2022-09-30T01:54:02;11.00;99.90
27128;DHT22;14660;49.008;8.390;2022-09-30T01:56:51;11.00;99.90
27128;DHT22;14660;49.008;8.390;2022-09-30T01:59:25;10.90;99.90
27128;DHT22;14660;49.008;8.390;2022-09-30T02:01:58;10.90;99.90
27128;DHT22;14660;49.008;8.390;2022-09-30T02:04:41;10.90;99.90
27128;DHT22;14660;49.008;8.390;2022-09-30T02:07:16;10.90;99.90
27128;DHT22;14660;49.008;8.390;2022-09-30T02:09:56;10.90;99.90
27128;DHT22;14660;49.008;8.390;2022-09-30T02:12:36;10.80;99.90
27128;DHT22;14660;49.008;8.390;2022-09-30T02:15:13;10.80;99.90
27128;DHT22;14660;49.008;8.390;2022-09-30T02:18:03;10.90;99.90
27128;DHT22;14660;49.008;8.390;2022-09-30T02:20:35;10.80;99.90
27128;DHT22;14660;49.008;8.390;2022-09-30T02:23:09;10.80;99.90
27128;DHT22;14660;49.008;8.390;2022-09-30T02:25:48;10.80;99.90
27128;DHT22;14660;49.008;8.390;2022-09-30T02:28:22;10.80;99.90
27128;DHT22;14660;49.008;8.390;2022-09-30T02:30:56;10.90;99.90
27128;DHT22;14660;49.008;8.390;2022-09-30T02:33:42;10.70;99.90
27128;DHT22;14660;49.008;8.390;2022-09-30T02:36:33;10.60;99.90
27128;DHT22;14660;49.008;8.390;2022-09-30T02:39:10;10.70;99.90
27128;DHT22;14660;49.008;8.390;2022-09-30T02:41:46;10.70;99.90
27128;DHT22;14660;49.008;8.390;2022-09-30T02:44:15;10.80;99.90
27128;DHT22;14660;49.008;8.390;2022-09-30T02:49:42;10.80;99.90
27128;DHT22;14660;49.008;8.390;2022-09-30T02:55:18;10.70;99.90
27128;DHT22;14660;49.008;8.390;2022-09-30T03:00:38;10.60;99.90
27128;DHT22;14660;49.008;8.390;2022-09-30T03:03:18;10.60;99.90
27128;DHT22;14660;49.008;8.390;2022-09-30T03:05:48;10.50;99.90
27128;DHT22;14660;49.008;8.390;2022-09-30T03:08:16;10.60;99.90
27128;DHT22;14660;49.008;8.390;2022-09-30T03:10:43;10.50;99.90
27128;DHT22;14660;49.008;8.390;2022-09-30T03:46:21;10.60;99.90
27128;DHT22;14660;49.008;8.390;2022-09-30T03:48:58;10.60;99.90
27128;DHT22;14660;49.008;8.390;2022-09-30T03:51:28;10.60;99.90
27128;DHT22;14660;49.008;8.390;2022-09-30T03:53:58;10.50;99.90
27128;DHT22;14660;49.008;8.390;2022-09-30T03:56:29;10.50;99.90
27128;DHT22;14660;49.008;8.390;2022-09-30T03:58:59;10.60;99.90
27128;DHT22;14660;49.008;8.390;2022-09-30T04:01:26;10.70;99.90
27128;DHT22;14660;49.008;8.390;2022-09-30T04:03:53;10.60;99.90
27128;DHT22;14660;49.008;8.390;2022-09-30T04:06:22;10.50;99.90
27128;DHT22;14660;49.008;8.390;2022-09-30T04:08:49;10.60;99.90
27128;DHT22;14660;49.008;8.390;2022-09-30T04:11:16;10.60;99.90
27128;DHT22;14660;49.008;8.390;2022-09-30T04:13:44;10.70;99.90
27128;DHT22;14660;49.008;8.390;2022-09-30T04:16:17;10.60;99.90
27128;DHT22;14660;49.008;8.390;2022-09-30T04:18:45;10.70;99.90
27128;DHT22;14660;49.008;8.390;2022-09-30T04:21:13;10.70;99.90
27128;DHT22;14660;49.008;8.390;2022-09-30T04:23:42;10.70;99.90
27128;DHT22;14660;49.008;8.390;2022-09-30T04:26:11;10.70;99.90
27128;DHT22;14660;49.008;8.390;2022-09-30T04:28:37;10.70;99.90
27128;DHT22;14660;49.008;8.390;2022-09-30T04:31:05;10.60;99.90
27128;DHT22;14660;49.008;8.390;2022-09-30T04:33:32;10.60;99.90
27128;DHT22;14660;49.008;8.390;2022-09-30T04:36:00;10.50;99.90
27128;DHT22;14660;49.008;8.390;2022-09-30T04:38:27;10.50;99.90
27128;DHT22;14660;49.008;8.390;2022-09-30T04:40:55;10.50;99.90
27128;DHT22;14660;49.008;8.390;2022-09-30T04:43:26;10.50;99.90
27128;DHT22;14660;49.008;8.390;2022-09-30T04:45:54;10.40;99.90
27128;DHT22;14660;49.008;8.390;2022-09-30T04:48:21;10.40;99.90
27128;DHT22;14660;49.008;8.390;2022-09-30T04:50:48;10.40;99.90
27128;DHT22;14660;49.008;8.390;2022-09-30T04:53:17;10.50;99.90
27128;DHT22;14660;49.008;8.390;2022-09-30T04:55:44;10.50;99.90
27128;DHT22;14660;49.008;8.390;2022-09-30T04:58:12;10.50;99.90
27128;DHT22;14660;49.008;8.390;2022-09-30T05:00:40;10.60;99.90
27128;DHT22;14660;49.008;8.390;2022-09-30T05:03:07;10.50;99.90
27128;DHT22;14660;49.008;8.390;2022-09-30T05:05:34;10.50;99.90
27128;DHT22;14660;49.008;8.390;2022-09-30T05:08:02;10.40;99.90
27128;DHT22;14660;49.008;8.390;2022-09-30T05:10:28;10.30;99.90
27128;DHT22;14660;49.008;8.390;2022-09-30T05:12:58;10.40;99.90
27128;DHT22;14660;49.008;8.390;2022-09-30T05:15:26;10.50;99.90
27128;DHT22;14660;49.008;8.390;2022-09-30T05:17:53;10.40;99.90
27128;DHT22;14660;49.008;8.390;2022-09-30T05:20:21;10.40;99.90
27128;DHT22;14660;49.008;8.390;2022-09-30T05:22:53;10.30;99.90
27128;DHT22;14660;49.008;8.390;2022-09-30T05:25:21;10.30;99.90
27128;DHT22;14660;49.008;8.390;2022-09-30T05:27:50;10.30;99.90
27128;DHT22;14660;49.008;8.390;2022-09-30T05:30:17;10.30;99.90
27128;DHT22;14660;49.008;8.390;2022-09-30T05:32:44;10.30;99.90
27128;DHT22;14660;49.008;8.390;2022-09-30T05:35:12;10.40;99.90
27128;DHT22;14660;49.008;8.390;2022-09-30T05:37:39;10.50;99.90
27128;DHT22;14660;49.008;8.390;2022-09-30T05:40:08;10.50;99.90
27128;DHT22;14660;49.008;8.390;2022-09-30T05:42:42;10.40;99.90
27128;DHT22;14660;49.008;8.390;2022-09-30T05:45:12;10.50;99.90
27128;DHT22;14660;49.008;8.390;2022-09-30T05:47:39;10.50;99.90
27128;DHT22;14660;49.008;8.390;2022-09-30T05:50:07;10.40;99.90
27128;DHT22;14660;49.008;8.390;2022-09-30T05:52:36;10.30;99.90
27128;DHT22;14660;49.008;8.390;2022-09-30T05:55:02;10.40;99.90
27128;DHT22;14660;49.008;8.390;2022-09-30T05:57:30;10.30;99.90
27128;DHT22;14660;49.008;8.390;2022-09-30T05:59:57;10.30;99.90
27128;DHT22;14660;49.008;8.390;2022-09-30T06:02:24;10.40;99.90
27128;DHT22;14660;49.008;8.390;2022-09-30T06:04:51;10.50;99.90
27128;DHT22;14660;49.008;8.390;2022-09-30T06:07:18;10.50;99.90
27128;DHT22;14660;49.008;8.390;2022-09-30T06:09:45;10.60;99.90
27128;DHT22;14660;49.008;8.390;2022-09-30T06:12:11;10.50;99.90
27128;DHT22;14660;49.008;8.390;2022-09-30T06:14:39;10.40;99.90
27128;DHT22;14660;49.008;8.390;2022-09-30T06:17:06;10.30;99.90
27128;DHT22;14660;49.008;8.390;2022-09-30T06:19:33;10.50;99.90
27128;DHT22;14660;49.008;8.390;2022-09-30T06:21:59;10.40;99.90
27128;DHT22;14660;49.008;8.390;2022-09-30T06:24:26;10.50;99.90
27128;DHT22;14660;49.008;8.390;2022-09-30T06:26:55;10.60;99.90
27128;DHT22;14660;49.008;8.390;2022-09-30T06:29:21;10.60;99.90
27128;DHT22;14660;49.008;8.390;2022-09-30T06:31:49;10.70;99.90
27128;DHT22;14660;49.008;8.390;2022-09-30T06:34:15;10.60;99.90
27128;DHT22;14660;49.008;8.390;2022-09-30T06:36:42;10.50;99.90
27128;DHT22;14660;49.008;8.390;2022-09-30T06:39:10;10.50;99.90
27128;DHT22;14660;49.008;8.390;2022-09-30T06:41:37;10.60;99.90
27128;DHT22;14660;49.008;8.390;2022-09-30T06:44:07;10.60;99.90
27128;DHT22;14660;49.008;8.390;2022-09-30T06:46:34;10.70;99.90
27128;DHT22;14660;49.008;8.390;2022-09-30T06:49:01;10.80;99.90
27128;DHT22;14660;49.008;8.390;2022-09-30T06:51:29;10.90;99.90
27128;DHT22;14660;49.008;8.390;2022-09-30T06:54:00;10.90;99.90
27128;DHT22;14660;49.008;8.390;2022-09-30T06:56:27;10.80;99.90
27128;DHT22;14660;49.008;8.390;2022-09-30T06:58:54;10.80;99.90
27128;DHT22;14660;49.008;8.390;2022-09-30T07:01:23;11.10;99.90
27128;DHT22;14660;49.008;8.390;2022-09-30T07:03:54;11.20;99.90
27128;DHT22;14660;49.008;8.390;2022-09-30T07:06:25;11.30;99.90
27128;DHT22;14660;49.008;8.390;2022-09-30T07:08:51;11.60;99.90
27128;DHT22;14660;49.008;8.390;2022-09-30T07:11:19;11.90;99.90
27128;DHT22;14660;49.008;8.390;2022-09-30T07:13:49;12.00;99.90
27128;DHT22;14660;49.008;8.390;2022-09-30T07:16:17;12.10;99.90
27128;DHT22;14660;49.008;8.390;2022-09-30T07:18:44;12.10;99.90
27128;DHT22;14660;49.008;8.390;2022-09-30T07:21:13;12.20;99.90
27128;DHT22;14660;49.008;8.390;2022-09-30T07:23:45;12.30;99.90
27128;DHT22;14660;49.008;8.390;2022-09-30T07:26:20;12.50;99.90
27128;DHT22;14660;49.008;8.390;2022-09-30T07:28:48;12.80;99.90
27128;DHT22;14660;49.008;8.390;2022-09-30T07:31:19;13.10;99.90
27128;DHT22;14660;49.008;8.390;2022-09-30T07:33:47;13.40;99.90
27128;DHT22;14660;49.008;8.390;2022-09-30T07:36:19;13.70;99.90
27128;DHT22;14660;49.008;8.390;2022-09-30T07:38:49;13.80;99.90
27128;DHT22;14660;49.008;8.390;2022-09-30T07:41:26;13.50;99.90
27128;DHT22;14660;49.008;8.390;2022-09-30T07:43:58;13.70;99.90
27128;DHT22;14660;49.008;8.390;2022-09-30T07:46:30;13.70;99.90
27128;DHT22;14660;49.008;8.390;2022-09-30T07:48:58;13.70;99.90
27128;DHT22;14660;49.008;8.390;2022-09-30T07:51:31;13.80;99.90
27128;DHT22;14660;49.008;8.390;2022-09-30T07:54:06;14.00;99.90
27128;DHT22;14660;49.008;8.390;2022-09-30T07:56:36;14.30;99.90
27128;DHT22;14660;49.008;8.390;2022-09-30T07:59:05;14.50;99.90
27128;DHT22;14660;49.008;8.390;2022-09-30T08:01:32;14.40;99.90
27128;DHT22;14660;49.008;8.390;2022-09-30T08:04:03;14.30;99.90
27128;DHT22;14660;49.008;8.390;2022-09-30T08:06:32;14.10;99.90
27128;DHT22;14660;49.008;8.390;2022-09-30T08:09:03;14.10;99.90
27128;DHT22;14660;49.008;8.390;2022-09-30T08:11:33;14.00;99.90
27128;DHT22;14660;49.008;8.390;2022-09-30T08:14:00;14.30;99.90
27128;DHT22;14660;49.008;8.390;2022-09-30T08:16:28;14.30;99.90
27128;DHT22;14660;49.008;8.390;2022-09-30T08:18:59;14.30;99.90
27128;DHT22;14660;49.008;8.390;2022-09-30T08:21:27;14.30;99.90
27128;DHT22;14660;49.008;8.390;2022-09-30T08:23:55;14.20;99.90
27128;DHT22;14660;49.008;8.390;2022-09-30T08:26:24;14.10;99.90
27128;DHT22;14660;49.008;8.390;2022-09-30T08:28:51;14.20;99.90
27128;DHT22;14660;49.008;8.390;2022-09-30T08:31:20;14.20;99.90
27128;DHT22;14660;49.008;8.390;2022-09-30T08:33:48;13.80;99.90
27128;DHT22;14660;49.008;8.390;2022-09-30T08:36:22;13.60;99.90
27128;DHT22;14660;49.008;8.390;2022-09-30T08:38:49;13.50;99.90
27128;DHT22;14660;49.008;8.390;2022-09-30T08:44:23;13.30;99.90
27128;DHT22;14660;49.008;8.390;2022-09-30T08:50:14;13.10;99.90
27128;DHT22;14660;49.008;8.390;2022-09-30T08:52:51;13.00;99.90
27128;DHT22;14660;49.008;8.390;2022-09-30T08:55:40;13.20;99.90
27128;DHT22;14660;49.008;8.390;2022-09-30T09:04:07;13.40;99.90
27128;DHT22;14660;49.008;8.390;2022-09-30T09:21:56;13.50;99.90
27128;DHT22;14660;49.008;8.390;2022-09-30T09:30:18;13.80;99.90
27128;DHT22;14660;49.008;8.390;2022-09-30T09:32:53;13.90;99.90
27128;DHT22;14660;49.008;8.390;2022-09-30T09:39:15;13.80;99.90
27128;DHT22;14660;49.008;8.390;2022-09-30T09:41:48;14.00;99.90
27128;DHT22;14660;49.008;8.390;2022-09-30T09:47:20;14.20;99.90
27128;DHT22;14660;49.008;8.390;2022-09-30T09:49:52;14.30;99.90
27128;DHT22;14660;49.008;8.390;2022-09-30T09:55:24;14.70;99.90
27128;DHT22;14660;49.008;8.390;2022-09-30T09:58:13;14.60;99.90
27128;DHT22;14660;49.008;8.390;2022-09-30T10:00:40;14.60;99.90
27128;DHT22;14660;49.008;8.390;2022-09-30T10:03:14;14.70;99.90
27128;DHT22;14660;49.008;8.390;2022-09-30T10:06:10;14.70;99.90
27128;DHT22;14660;49.008;8.390;2022-09-30T10:08:54;14.60;99.90
27128;DHT22;14660;49.008;8.390;2022-09-30T10:11:24;14.30;99.90
27128;DHT22;14660;49.008;8.390;2022-09-30T10:13:57;14.40;99.90
27128;DHT22;14660;49.008;8.390;2022-09-30T10:16:43;14.30;99.90
27128;DHT22;14660;49.008;8.390;2022-09-30T10:19:25;14.40;99.90
27128;DHT22;14660;49.008;8.390;2022-09-30T10:24:40;14.50;99.90
27128;DHT22;14660;49.008;8.390;2022-09-30T10:27:28;14.60;99.90
27128;DHT22;14660;49.008;8.390;2022-09-30T10:29:57;14.80;99.90
27128;DHT22;14660;49.008;8.390;2022-09-30T10:32:24;14.90;99.90
27128;DHT22;14660;49.008;8.390;2022-09-30T10:35:19;15.10;99.90
27128;DHT22;14660;49.008;8.390;2022-09-30T10:37:56;15.30;99.90
27128;DHT22;14660;49.008;8.390;2022-09-30T10:40:27;15.30;99.90
27128;DHT22;14660;49.008;8.390;2022-09-30T10:42:54;15.40;99.90
27128;DHT22;14660;49.008;8.390;2022-09-30T10:45:37;15.60;99.90
27128;DHT22;14660;49.008;8.390;2022-09-30T10:48:16;15.50;99.90
27128;DHT22;14660;49.008;8.390;2022-09-30T10:50:52;15.50;99.90
27128;DHT22;14660;49.008;8.390;2022-09-30T10:53:27;15.40;99.90
27128;DHT22;14660;49.008;8.390;2022-09-30T10:55:55;15.40;99.90
27128;DHT22;14660;49.008;8.390;2022-09-30T11:01:50;15.50;99.90
27128;DHT22;14660;49.008;8.390;2022-09-30T11:04:39;15.50;99.90
27128;DHT22;14660;49.008;8.390;2022-09-30T11:13:53;15.50;99.90
27128;DHT22;14660;49.008;8.390;2022-09-30T11:22:46;15.30;99.90
27128;DHT22;14660;49.008;8.390;2022-09-30T11:25:18;15.30;99.90
27128;DHT22;14660;49.008;8.390;2022-09-30T11:34:22;15.20;99.90
27128;DHT22;14660;49.008;8.390;2022-09-30T11:46:35;15.20;99.90
27128;DHT22;14660;49.008;8.390;2022-09-30T11:55:35;15.30;99.90
27128;DHT22;14660;49.008;8.390;2022-09-30T11:58:22;15.30;99.90
27128;DHT22;14660;49.008;8.390;2022-09-30T12:00:57;15.40;99.90
27128;DHT22;14660;49.008;8.390;2022-09-30T12:03:33;15.40;99.90
27128;DHT22;14660;49.008;8.390;2022-09-30T12:06:12;15.40;99.90
27128;DHT22;14660;49.008;8.390;2022-09-30T12:08:51;15.50;99.90
27128;DHT22;14660;49.008;8.390;2022-09-30T12:12:17;15.60;99.90
27128;DHT22;14660;49.008;8.390;2022-09-30T12:14:25;15.50;99.90
27128;DHT22;14660;49.008;8.390;2022-09-30T12:16:54;15.40;99.90
27128;DHT22;14660;49.008;8.390;2022-09-30T12:19:42;15.50;99.90
27128;DHT22;14660;49.008;8.390;2022-09-30T12:25:31;15.60;99.90
27128;DHT22;14660;49.008;8.390;2022-09-30T12:48:38;16.00;99.90
27128;DHT22;14660;49.008;8.390;2022-09-30T12:51:06;16.10;99.90
27128;DHT22;14660;49.008;8.390;2022-09-30T12:53:40;16.10;99.90
27128;DHT22;14660;49.008;8.390;2022-09-30T12:56:13;16.30;99.90
27128;DHT22;14660;49.008;8.390;2022-09-30T12:58:47;16.30;99.90
27128;DHT22;14660;49.008;8.390;2022-09-30T13:01:37;16.30;99.90
27128;DHT22;14660;49.008;8.390;2022-09-30T13:07:21;16.60;99.90
27128;DHT22;14660;49.008;8.390;2022-09-30T13:10:33;16.70;99.90
27128;DHT22;14660;49.008;8.390;2022-09-30T13:16:03;16.70;99.90
27128;DHT22;14660;49.008;8.390;2022-09-30T13:21:20;16.80;99.90
27128;DHT22;14660;49.008;8.390;2022-09-30T13:23:50;16.90;99.90
27128;DHT22;14660;49.008;8.390;2022-09-30T13:26:40;17.00;99.90
27128;DHT22;14660;49.008;8.390;2022-09-30T13:32:10;17.10;99.90
27128;DHT22;14660;49.008;8.390;2022-09-30T13:34:52;17.20;99.90
27128;DHT22;14660;49.008;8.390;2022-09-30T13:37:38;17.20;99.90
27128;DHT22;14660;49.008;8.390;2022-09-30T13:40:15;17.20;99.90
27128;DHT22;14660;49.008;8.390;2022-09-30T13:42:53;17.30;99.90
27128;DHT22;14660;49.008;8.390;2022-09-30T13:45:33;17.40;99.90
27128;DHT22;14660;49.008;8.390;2022-09-30T13:48:21;17.40;99.90
27128;DHT22;14660;49.008;8.390;2022-09-30T13:50:51;17.40;99.90
27128;DHT22;14660;49.008;8.390;2022-09-30T13:53:47;17.40;99.90
27128;DHT22;14660;49.008;8.390;2022-09-30T13:56:33;17.30;99.90
27128;DHT22;14660;49.008;8.390;2022-09-30T14:05:36;17.50;99.90
27128;DHT22;14660;49.008;8.390;2022-09-30T14:08:32;17.60;99.90
27128;DHT22;14660;49.008;8.390;2022-09-30T14:23:31;17.70;99.90
27128;DHT22;14660;49.008;8.390;2022-09-30T14:30:05;17.70;99.90
27128;DHT22;14660;49.008;8.390;2022-09-30T14:32:16;17.70;99.90
27128;DHT22;14660;49.008;8.390;2022-09-30T14:34:45;17.70;99.90
27128;DHT22;14660;49.008;8.390;2022-09-30T14:37:23;17.70;99.90
27128;DHT22;14660;49.008;8.390;2022-09-30T14:39:55;17.70;99.90
27128;DHT22;14660;49.008;8.390;2022-09-30T14:42:34;17.80;99.90
27128;DHT22;14660;49.008;8.390;2022-09-30T14:45:05;17.70;99.90
27128;DHT22;14660;49.008;8.390;2022-09-30T14:47:43;17.70;99.90
27128;DHT22;14660;49.008;8.390;2022-09-30T14:50:22;17.70;99.90
27128;DHT22;14660;49.008;8.390;2022-09-30T14:52:56;17.40;99.90
27128;DHT22;14660;49.008;8.390;2022-09-30T14:55:47;17.50;99.90
27128;DHT22;14660;49.008;8.390;2022-09-30T14:58:40;17.50;99.90
27128;DHT22;14660;49.008;8.390;2022-09-30T15:01:14;17.60;99.90
27128;DHT22;14660;49.008;8.390;2022-09-30T15:06:37;17.70;99.90
27128;DHT22;14660;49.008;8.390;2022-09-30T15:09:07;17.70;99.90
27128;DHT22;14660;49.008;8.390;2022-09-30T15:11:33;17.80;99.90
27128;DHT22;14660;49.008;8.390;2022-09-30T15:14:08;17.70;99.90
27128;DHT22;14660;49.008;8.390;2022-09-30T15:16:48;17.70;99.90
27128;DHT22;14660;49.008;8.390;2022-09-30T15:19:33;17.70;99.90
27128;DHT22;14660;49.008;8.390;2022-09-30T15:22:02;17.60;99.90
27128;DHT22;14660;49.008;8.390;2022-09-30T15:24:33;17.50;99.90
27128;DHT22;14660;49.008;8.390;2022-09-30T15:27:02;17.40;99.90
27128;DHT22;14660;49.008;8.390;2022-09-30T15:29:30;17.40;99.90
27128;DHT22;14660;49.008;8.390;2022-09-30T15:32:19;17.30;99.90
27128;DHT22;14660;49.008;8.390;2022-09-30T15:34:47;17.20;99.90
27128;DHT22;14660;49.008;8.390;2022-09-30T15:37:25;17.10;99.90
27128;DHT22;14660;49.008;8.390;2022-09-30T15:39:56;17.10;99.90
27128;DHT22;14660;49.008;8.390;2022-09-30T15:43:06;17.00;99.90
27128;DHT22;14660;49.008;8.390;2022-09-30T15:45:37;16.90;99.90
27128;DHT22;14660;49.008;8.390;2022-09-30T15:48:32;16.80;99.90
27128;DHT22;14660;49.008;8.390;2022-09-30T15:53:49;16.70;99.90
27128;DHT22;14660;49.008;8.390;2022-09-30T15:56:36;16.60;99.90
27128;DHT22;14660;49.008;8.390;2022-09-30T15:59:55;16.60;99.90
27128;DHT22;14660;49.008;8.390;2022-09-30T16:02:32;16.50;99.90
27128;DHT22;14660;49.008;8.390;2022-09-30T16:05:01;16.50;99.90
27128;DHT22;14660;49.008;8.390;2022-09-30T16:07:29;16.40;99.90
27128;DHT22;14660;49.008;8.390;2022-09-30T16:09:57;16.30;99.90
27128;DHT22;14660;49.008;8.390;2022-09-30T16:12:29;16.30;99.90
27128;DHT22;14660;49.008;8.390;2022-09-30T16:15:18;16.20;99.90
27128;DHT22;14660;49.008;8.390;2022-09-30T16:17:48;16.20;99.90
27128;DHT22;14660;49.008;8.390;2022-09-30T16:20:34;16.20;99.90
27128;DHT22;14660;49.008;8.390;2022-09-30T16:23:02;16.20;99.90
27128;DHT22;14660;49.008;8.390;2022-09-30T16:25:33;16.10;99.90
27128;DHT22;14660;49.008;8.390;2022-09-30T16:28:18;16.00;99.90
27128;DHT22;14660;49.008;8.390;2022-09-30T16:30:51;16.00;99.90
27128;DHT22;14660;49.008;8.390;2022-09-30T16:33:21;16.00;99.90
27128;DHT22;14660;49.008;8.390;2022-09-30T16:36:03;15.90;99.90
27128;DHT22;14660;49.008;8.390;2022-09-30T16:38:32;15.80;99.90
27128;DHT22;14660;49.008;8.390;2022-09-30T16:41:03;15.80;99.90
27128;DHT22;14660;49.008;8.390;2022-09-30T16:44:12;15.70;99.90
27128;DHT22;14660;49.008;8.390;2022-09-30T16:47:31;15.60;99.90
27128;DHT22;14660;49.008;8.390;2022-09-30T16:49:58;15.60;99.90
27128;DHT22;14660;49.008;8.390;2022-09-30T16:52:27;15.50;99.90
27128;DHT22;14660;49.008;8.390;2022-09-30T16:54:55;15.50;99.90
27128;DHT22;14660;49.008;8.390;2022-09-30T16:57:27;15.50;99.90
27128;DHT22;14660;49.008;8.390;2022-09-30T16:59:54;15.40;99.90
27128;DHT22;14660;49.008;8.390;2022-09-30T17:02:20;15.30;99.90
27128;DHT22;14660;49.008;8.390;2022-09-30T17:04:47;15.30;99.90
27128;DHT22;14660;49.008;8.390;2022-09-30T17:07:13;15.20;99.90
27128;DHT22;14660;49.008;8.390;2022-09-30T17:09:42;15.20;99.90
27128;DHT22;14660;49.008;8.390;2022-09-30T17:12:09;15.10;99.90
27128;DHT22;14660;49.008;8.390;2022-09-30T17:14:41;15.10;99.90
27128;DHT22;14660;49.008;8.390;2022-09-30T17:17:10;15.00;99.90
27128;DHT22;14660;49.008;8.390;2022-09-30T17:19:37;14.90;99.90
27128;DHT22;14660;49.008;8.390;2022-09-30T17:22:03;14.90;99.90
27128;DHT22;14660;49.008;8.390;2022-09-30T17:24:30;14.80;99.90
27128;DHT22;14660;49.008;8.390;2022-09-30T17:26:58;14.80;99.90
27128;DHT22;14660;49.008;8.390;2022-09-30T17:29:27;14.80;99.90
27128;DHT22;14660;49.008;8.390;2022-09-30T17:31:54;14.70;99.90
27128;DHT22;14660;49.008;8.390;2022-09-30T17:34:21;14.70;99.90
27128;DHT22;14660;49.008;8.390;2022-09-30T17:36:52;14.70;99.90
27128;DHT22;14660;49.008;8.390;2022-09-30T17:39:20;14.60;99.90
27128;DHT22;14660;49.008;8.390;2022-09-30T17:41:46;14.60;99.90
27128;DHT22;14660;49.008;8.390;2022-09-30T17:44:43;14.60;99.90
27128;DHT22;14660;49.008;8.390;2022-09-30T17:47:19;14.50;99.90
27128;DHT22;14660;49.008;8.390;2022-09-30T17:49:47;14.40;99.90
27128;DHT22;14660;49.008;8.390;2022-09-30T17:52:21;14.40;99.90
27128;DHT22;14660;49.008;8.390;2022-09-30T17:54:51;14.40;99.90
27128;DHT22;14660;49.008;8.390;2022-09-30T17:57:19;14.30;99.90
27128;DHT22;14660;49.008;8.390;2022-09-30T17:59:47;14.30;99.90
27128;DHT22;14660;49.008;8.390;2022-09-30T18:02:18;14.30;99.90
27128;DHT22;14660;49.008;8.390;2022-09-30T18:04:46;14.20;99.90
27128;DHT22;14660;49.008;8.390;2022-09-30T18:07:13;14.20;99.90
27128;DHT22;14660;49.008;8.390;2022-09-30T18:09:40;14.20;99.90
27128;DHT22;14660;49.008;8.390;2022-09-30T18:12:08;14.10;99.90
27128;DHT22;14660;49.008;8.390;2022-09-30T18:14:35;14.10;99.90
27128;DHT22;14660;49.008;8.390;2022-09-30T18:17:04;14.00;99.90
27128;DHT22;14660;49.008;8.390;2022-09-30T18:19:31;14.00;99.90
27128;DHT22;14660;49.008;8.390;2022-09-30T18:21:58;13.80;99.90
27128;DHT22;14660;49.008;8.390;2022-09-30T18:24:26;13.90;99.90
27128;DHT22;14660;49.008;8.390;2022-09-30T18:27:12;13.80;99.90
27128;DHT22;14660;49.008;8.390;2022-09-30T18:29:38;13.90;99.90
27128;DHT22;14660;49.008;8.390;2022-09-30T18:32:05;13.80;99.90
27128;DHT22;14660;49.008;8.390;2022-09-30T18:34:33;13.80;99.90
27128;DHT22;14660;49.008;8.390;2022-09-30T18:37:01;13.70;99.90
27128;DHT22;14660;49.008;8.390;2022-09-30T18:39:35;13.60;99.90
27128;DHT22;14660;49.008;8.390;2022-09-30T18:42:06;13.50;99.90
27128;DHT22;14660;49.008;8.390;2022-09-30T18:44:34;13.60;99.90
27128;DHT22;14660;49.008;8.390;2022-09-30T18:47:04;13.60;99.90
27128;DHT22;14660;49.008;8.390;2022-09-30T18:49:33;13.50;99.90
27128;DHT22;14660;49.008;8.390;2022-09-30T18:52:01;13.50;99.90
27128;DHT22;14660;49.008;8.390;2022-09-30T18:54:32;13.40;99.90
27128;DHT22;14660;49.008;8.390;2022-09-30T18:57:00;13.40;99.90
27128;DHT22;14660;49.008;8.390;2022-09-30T18:59:28;13.40;99.90
27128;DHT22;14660;49.008;8.390;2022-09-30T19:01:55;13.40;99.90
27128;DHT22;14660;49.008;8.390;2022-09-30T19:04:24;13.30;99.90
27128;DHT22;14660;49.008;8.390;2022-09-30T19:06:52;13.20;99.90
27128;DHT22;14660;49.008;8.390;2022-09-30T19:09:19;13.20;99.90
27128;DHT22;14660;49.008;8.390;2022-09-30T19:11:46;13.10;99.90
27128;DHT22;14660;49.008;8.390;2022-09-30T19:14:14;13.10;99.90
27128;DHT22;14660;49.008;8.390;2022-09-30T19:16:41;13.00;99.90
27128;DHT22;14660;49.008;8.390;2022-09-30T19:19:09;13.00;99.90
27128;DHT22;14660;49.008;8.390;2022-09-30T19:21:37;13.00;99.90
27128;DHT22;14660;49.008;8.390;2022-09-30T19:24:16;13.00;99.90
27128;DHT22;14660;49.008;8.390;2022-09-30T19:26:45;12.90;99.90
27128;DHT22;14660;49.008;8.390;2022-09-30T19:29:14;12.90;99.90
27128;DHT22;14660;49.008;8.390;2022-09-30T19:31:45;12.90;99.90
27128;DHT22;14660;49.008;8.390;2022-09-30T19:34:12;12.80;99.90
27128;DHT22;14660;49.008;8.390;2022-09-30T19:36:40;12.80;99.90
27128;DHT22;14660;49.008;8.390;2022-09-30T19:39:07;12.70;99.90
27128;DHT22;14660;49.008;8.390;2022-09-30T19:41:35;12.60;99.90
27128;DHT22;14660;49.008;8.390;2022-09-30T19:44:02;12.60;99.90
27128;DHT22;14660;49.008;8.390;2022-09-30T19:46:29;12.50;99.90
27128;DHT22;14660;49.008;8.390;2022-09-30T19:48:57;12.70;99.90
27128;DHT22;14660;49.008;8.390;2022-09-30T19:51:27;12.70;99.90
27128;DHT22;14660;49.008;8.390;2022-09-30T19:53:57;12.70;99.90
27128;DHT22;14660;49.008;8.390;2022-09-30T19:56:26;12.80;99.90